Terminal Aerodrome Forecast
Issued by NWS

Home | Current Version | Previous Version | Text Only | Print | Product List | Glossary On
Versions: 1 2 3 4 5 6 7 8 9 10 11 12 13 14 15 16 17 18 19 20
163
FTUS43 KDLH 221533 AAB
TAFHIB
TAF AMD
KHIB 221533Z 2216/2312 29008KT P6SM VCSH BKN016 OVC028
     FM222000 30009KT P6SM VCSH BKN025 OVC050
     FM230100 32004KT P6SM VCSH BKN015
     FM230600 33005KT 6SM BR OVC010=

USA.gov is the U.S. government's official web portal to all federal, state and local government web resources and services.